createdAt,value
2022-10-01T00:01:31.759Z,56.50
2022-10-01T00:04:00.160Z,60.50
2022-10-01T00:06:28.386Z,62.50
2022-10-01T00:08:56.500Z,64.00
2022-10-01T00:11:26.578Z,64.70
2022-10-01T00:13:55.379Z,65.20
2022-10-01T00:16:26.609Z,59.50
2022-10-01T00:18:55.450Z,57.80
2022-10-01T00:21:25.125Z,56.60
2022-10-01T00:23:57.350Z,55.20
2022-10-01T00:26:28.058Z,54.20
2022-10-01T00:29:01.142Z,55.10
2022-10-01T00:31:30.451Z,58.90
2022-10-01T00:34:03.670Z,60.90
2022-10-01T00:36:33.366Z,62.50
2022-10-01T00:39:01.698Z,63.40
2022-10-01T00:41:32.440Z,64.00
2022-10-01T00:44:04.729Z,60.90
2022-10-01T00:46:54.470Z,58.00
2022-10-01T00:49:28.148Z,56.60
2022-10-01T00:51:59.916Z,60.30
2022-10-01T00:54:32.285Z,62.70
2022-10-01T00:57:03.169Z,64.50
2022-10-01T00:59:32.382Z,65.30
2022-10-01T01:02:01.032Z,65.80
2022-10-01T01:04:29.474Z,65.60
2022-10-01T01:07:00.998Z,60.10
2022-10-01T01:09:33.508Z,58.30
2022-10-01T01:12:26.927Z,56.90
2022-10-01T01:15:01.011Z,55.60
2022-10-01T01:17:40.907Z,54.50
2022-10-01T01:20:20.651Z,56.90
2022-10-01T01:23:11.991Z,60.00
2022-10-01T01:25:59.938Z,62.10
2022-10-01T01:28:50.979Z,63.60
2022-10-01T01:31:25.465Z,64.40
2022-10-01T01:33:56.268Z,65.00
2022-10-01T01:36:29.315Z,60.50
2022-10-01T01:39:03.094Z,58.40
2022-10-01T01:41:35.684Z,57.30
2022-10-01T01:44:08.825Z,61.10
2022-10-01T01:46:41.717Z,63.60
2022-10-01T01:49:10.479Z,65.10
2022-10-01T01:51:49.913Z,66.10
2022-10-01T01:54:20.228Z,66.90
2022-10-01T01:56:50.287Z,65.50
2022-10-01T01:59:19.350Z,60.70
2022-10-01T02:01:47.692Z,58.60
2022-10-01T02:07:54.375Z,55.70
2022-10-01T02:10:46.677Z,55.00
2022-10-01T02:13:56.254Z,58.20
2022-10-01T02:16:33.177Z,60.70
2022-10-01T02:19:25.655Z,62.70
2022-10-01T02:22:08.489Z,63.90
2022-10-01T02:24:42.882Z,64.50
2022-10-01T02:27:33.870Z,63.20
2022-10-01T02:30:06.762Z,59.30
2022-10-01T02:32:39.971Z,57.00
2022-10-01T02:35:11.798Z,59.20
2022-10-01T02:37:43.381Z,62.60
2022-10-01T02:40:16.183Z,64.20
2022-10-01T02:42:52.003Z,65.50
2022-10-01T02:45:23.239Z,66.10
2022-10-01T02:47:56.638Z,66.40
2022-10-01T02:50:32.043Z,61.30
2022-10-01T02:53:05.881Z,59.40
2022-10-01T02:55:38.447Z,57.30
2022-10-01T02:58:08.075Z,56.10
2022-10-01T03:00:36.471Z,55.10
2022-10-01T03:03:04.669Z,55.30
2022-10-01T03:05:33.035Z,58.80
2022-10-01T03:08:01.407Z,61.10
2022-10-01T03:10:29.580Z,62.40
2022-10-01T03:12:57.801Z,63.40
2022-10-01T03:15:25.977Z,64.30
2022-10-01T03:17:54.324Z,64.80
2022-10-01T03:20:22.957Z,62.70
2022-10-01T03:22:51.614Z,59.00
2022-10-01T03:25:19.947Z,57.30
2022-10-01T03:27:52.540Z,59.50
2022-10-01T03:30:20.768Z,63.00
2022-10-01T03:32:48.811Z,64.50
2022-10-01T03:35:17.115Z,66.20
2022-10-01T03:37:45.286Z,67.30
2022-10-01T03:40:13.550Z,67.50
2022-10-01T03:42:41.676Z,65.30
2022-10-01T03:45:10.319Z,61.20
2022-10-01T03:47:38.366Z,59.30
2022-10-01T03:50:07.180Z,57.70
2022-10-01T03:52:35.081Z,56.60
2022-10-01T03:55:03.278Z,55.90
2022-10-01T03:57:31.369Z,58.30
2022-10-01T03:59:59.537Z,61.00
2022-10-01T04:02:27.931Z,62.70
2022-10-01T04:04:56.352Z,64.10
2022-10-01T04:07:24.599Z,65.10
2022-10-01T04:09:52.609Z,65.60
2022-10-01T04:12:20.832Z,65.90
2022-10-01T04:14:48.973Z,60.60
2022-10-01T04:17:17.166Z,59.10
2022-10-01T04:19:45.302Z,58.40
2022-10-01T04:22:13.475Z,61.90
2022-10-01T04:24:41.707Z,64.00
2022-10-01T04:27:10.218Z,65.20
2022-10-01T04:29:40.255Z,66.40
2022-10-01T04:32:08.640Z,66.80
2022-10-01T04:34:36.903Z,67.10
2022-10-01T04:37:05.066Z,63.70
2022-10-01T04:39:33.301Z,60.90
2022-10-01T04:42:01.480Z,58.60
2022-10-01T04:44:29.843Z,57.20
2022-10-01T04:46:58.264Z,55.90
2022-10-01T04:49:26.433Z,55.40
2022-10-01T04:51:54.550Z,58.70
2022-10-01T04:54:22.802Z,60.80
2022-10-01T04:56:51.003Z,62.70
2022-10-01T04:59:19.344Z,63.80
2022-10-01T05:01:47.664Z,64.40
2022-10-01T05:04:24.852Z,64.80
2022-10-01T05:06:52.970Z,65.20
2022-10-01T05:09:21.191Z,59.80
2022-10-01T05:11:49.310Z,58.00
2022-10-01T05:14:17.281Z,58.00
2022-10-01T05:16:45.531Z,61.60
2022-10-01T05:19:14.168Z,63.60
2022-10-01T05:21:42.357Z,64.70
2022-10-01T05:24:10.574Z,65.80
2022-10-01T05:26:38.847Z,66.20
2022-10-01T05:29:07.057Z,66.40
2022-10-01T05:31:35.309Z,61.20
2022-10-01T05:34:03.527Z,59.30
2022-10-01T05:36:31.652Z,57.70
2022-10-01T05:39:05.239Z,56.50
2022-10-01T05:41:33.689Z,55.50
2022-10-01T05:44:02.151Z,56.40
2022-10-01T05:46:30.537Z,59.60
2022-10-01T05:48:58.776Z,61.50
2022-10-01T05:51:27.945Z,63.20
2022-10-01T05:53:56.538Z,64.40
2022-10-01T05:56:24.366Z,65.10
2022-10-01T05:58:52.625Z,65.50
2022-10-01T06:01:20.815Z,65.70
2022-10-01T06:03:53.330Z,61.20
2022-10-01T06:06:23.283Z,59.40
2022-10-01T06:08:51.671Z,57.90
2022-10-01T06:11:20.815Z,61.60
2022-10-01T06:13:49.337Z,64.00
2022-10-01T06:16:17.684Z,65.50
2022-10-01T06:18:47.458Z,66.20
2022-10-01T06:21:15.662Z,67.00
2022-10-01T06:23:43.677Z,67.10
2022-10-01T06:26:11.949Z,67.10
2022-10-01T06:28:40.088Z,61.40
2022-10-01T06:31:08.241Z,60.00
2022-10-01T06:33:36.593Z,58.80
2022-10-01T06:36:05.336Z,56.80
2022-10-01T06:38:33.630Z,55.80
2022-10-01T06:41:03.159Z,58.40
2022-10-01T06:43:32.662Z,61.30
2022-10-01T06:46:05.555Z,63.10
2022-10-01T06:48:34.610Z,64.20
2022-10-01T06:51:03.299Z,65.10
2022-10-01T06:53:31.390Z,65.50
2022-10-01T06:56:08.025Z,65.90
2022-10-01T06:58:36.115Z,65.70
2022-10-01T07:01:04.726Z,60.70
2022-10-01T07:03:32.533Z,58.90
2022-10-01T07:06:05.845Z,57.60
2022-10-01T07:08:34.015Z,56.20
2022-10-01T07:11:03.191Z,56.20
2022-10-01T07:13:32.085Z,59.80
2022-10-01T07:16:00.370Z,61.90
2022-10-01T07:18:28.581Z,63.60
2022-10-01T07:20:59.589Z,64.60
2022-10-01T07:23:27.788Z,65.10
2022-10-01T07:25:56.034Z,65.50
2022-10-01T07:28:24.348Z,65.70
2022-10-01T07:31:07.126Z,63.90
2022-10-01T07:33:35.413Z,59.20
2022-10-01T07:36:06.324Z,57.90
2022-10-01T07:38:34.978Z,56.50
2022-10-01T07:41:03.558Z,55.70
2022-10-01T07:43:32.429Z,59.60
2022-10-01T07:46:00.717Z,61.80
2022-10-01T07:48:29.156Z,63.30
2022-10-01T07:50:57.427Z,64.30
2022-10-01T07:53:25.874Z,65.20
2022-10-01T07:55:54.151Z,65.70
2022-10-01T07:58:22.305Z,66.00
2022-10-01T08:00:50.739Z,66.00
2022-10-01T08:03:18.972Z,62.00
2022-10-01T08:05:47.227Z,59.60
2022-10-01T08:08:15.627Z,58.20
2022-10-01T08:10:43.683Z,56.30
2022-10-01T08:13:16.860Z,55.60
2022-10-01T08:15:47.571Z,58.90
2022-10-01T08:18:15.822Z,61.40
2022-10-01T08:20:44.002Z,63.00
2022-10-01T08:23:13.964Z,64.30
2022-10-01T08:25:43.739Z,65.20
2022-10-01T08:28:12.942Z,65.70
2022-10-01T08:30:43.235Z,65.90
2022-10-01T08:33:13.045Z,66.10
2022-10-01T08:35:41.953Z,61.20
2022-10-01T08:38:11.215Z,59.50
2022-10-01T08:40:51.058Z,57.80
2022-10-01T08:43:39.596Z,56.60
2022-10-01T08:46:13.285Z,55.90
2022-10-01T08:49:07.152Z,59.30
2022-10-01T08:51:40.698Z,61.70
2022-10-01T08:54:27.262Z,63.50
2022-10-01T08:56:58.584Z,64.90
2022-10-01T09:00:04.938Z,65.60
2022-10-01T09:02:35.938Z,65.90
2022-10-01T09:05:10.555Z,66.10
2022-10-01T09:08:20.304Z,64.60
2022-10-01T09:10:48.445Z,59.90
2022-10-01T09:13:34.366Z,58.50
2022-10-01T09:16:26.081Z,57.30
2022-10-01T09:19:00.521Z,55.80
2022-10-01T09:21:51.811Z,58.00
2022-10-01T09:24:45.952Z,61.50
2022-10-01T09:27:19.217Z,63.40
2022-10-01T09:29:53.115Z,65.00
2022-10-01T09:32:27.217Z,66.10
2022-10-01T09:35:00.904Z,66.60
2022-10-01T09:37:56.816Z,66.90
2022-10-01T09:40:49.524Z,64.80
2022-10-01T09:43:17.939Z,60.80
2022-10-01T09:45:46.274Z,58.80
2022-10-01T09:48:31.079Z,57.70
2022-10-01T09:51:08.245Z,56.50
2022-10-01T09:53:44.486Z,56.00
2022-10-01T09:56:20.517Z,58.60
2022-10-01T09:58:54.268Z,61.20
2022-10-01T10:01:40.528Z,63.40
2022-10-01T10:04:10.459Z,64.90
2022-10-01T10:06:39.518Z,65.80
2022-10-01T10:09:17.669Z,66.40
2022-10-01T10:11:46.572Z,67.20
2022-10-01T10:14:31.182Z,66.10
2022-10-01T10:17:06.178Z,61.40
2022-10-01T10:19:35.027Z,59.30
2022-10-01T10:22:13.674Z,58.20
2022-10-01T10:24:42.043Z,57.10
2022-10-01T10:27:23.862Z,56.60
2022-10-01T10:30:03.557Z,56.30
2022-10-01T10:32:32.156Z,60.20
2022-10-01T10:35:03.717Z,62.90
2022-10-01T10:37:36.761Z,64.80
2022-10-01T10:40:08.049Z,66.10
2022-10-01T10:42:37.280Z,67.20
2022-10-01T10:45:17.621Z,67.90
2022-10-01T10:47:49.220Z,68.30
2022-10-01T10:50:29.072Z,65.90
2022-10-01T10:52:57.461Z,62.00
2022-10-01T10:55:31.575Z,60.50
2022-10-01T10:58:17.852Z,64.10
2022-10-01T11:00:51.529Z,67.10
2022-10-01T11:03:24.309Z,68.50
2022-10-01T11:05:54.335Z,69.90
2022-10-01T11:08:25.624Z,70.80
2022-10-01T11:11:05.743Z,71.40
2022-10-01T11:13:52.533Z,70.30
2022-10-01T11:16:30.321Z,64.50
2022-10-01T11:19:19.834Z,62.70
2022-10-01T11:22:06.503Z,61.50
2022-10-01T11:25:12.381Z,60.00
2022-10-01T11:28:07.929Z,59.10
2022-10-01T11:30:54.175Z,59.60
2022-10-01T11:33:28.470Z,63.70
2022-10-01T11:36:22.533Z,66.00
2022-10-01T11:38:57.425Z,67.70
2022-10-01T11:41:46.678Z,69.60
2022-10-01T11:44:38.230Z,70.40
2022-10-01T11:47:20.791Z,68.90
2022-10-01T11:49:54.964Z,64.60
2022-10-01T11:52:33.066Z,62.40
2022-10-01T11:55:27.312Z,65.40
2022-10-01T11:58:08.270Z,69.00
2022-10-01T12:00:39.876Z,70.60
2022-10-01T12:03:17.753Z,71.80
2022-10-01T12:05:47.031Z,72.70
2022-10-01T12:08:47.939Z,73.00
2022-10-01T12:11:22.607Z,66.60
2022-10-01T12:14:06.663Z,65.00
2022-10-01T12:16:45.118Z,63.30
2022-10-01T12:19:33.878Z,61.50
2022-10-01T12:22:26.440Z,60.90
2022-10-01T12:24:54.618Z,59.40
2022-10-01T12:27:57.368Z,60.50
2022-10-01T12:30:30.967Z,64.90
2022-10-01T12:33:17.813Z,67.30
2022-10-01T12:36:17.339Z,68.80
2022-10-01T12:38:48.822Z,65.80
2022-10-01T12:41:49.557Z,63.10
2022-10-01T12:44:30.565Z,61.90
2022-10-01T12:47:31.242Z,66.30
2022-10-01T12:50:17.586Z,68.30
2022-10-01T12:53:04.009Z,70.00
2022-10-01T12:55:57.116Z,68.60
2022-10-01T12:58:25.244Z,64.90
2022-10-01T13:01:38.421Z,62.80
2022-10-01T13:04:12.697Z,60.90
2022-10-01T13:07:14.829Z,60.30
2022-10-01T13:10:41.598Z,59.20
2022-10-01T13:13:27.942Z,60.40
2022-10-01T13:16:15.176Z,64.60
2022-10-01T13:19:05.450Z,66.70
2022-10-01T13:21:41.139Z,65.30
2022-10-01T13:24:25.023Z,62.20
2022-10-01T13:27:14.343Z,60.50
2022-10-01T13:29:57.399Z,63.90
2022-10-01T13:32:28.544Z,66.80
2022-10-01T13:34:58.538Z,68.80
2022-10-01T13:37:39.924Z,69.90
2022-10-01T13:40:40.644Z,64.00
2022-10-01T13:43:18.547Z,62.20
2022-10-01T13:45:49.516Z,60.60
2022-10-01T13:48:28.242Z,59.30
2022-10-01T13:51:04.455Z,59.30
2022-10-01T13:54:02.688Z,58.90
2022-10-01T13:56:34.446Z,60.70
2022-10-01T13:59:04.350Z,64.20
2022-10-01T14:01:43.013Z,66.10
2022-10-01T14:04:20.079Z,67.50
2022-10-01T14:07:11.899Z,68.10
2022-10-01T14:09:49.718Z,62.80
2022-10-01T14:12:28.367Z,60.80
2022-10-01T14:14:58.911Z,61.90
2022-10-01T14:17:30.845Z,65.80
2022-10-01T14:20:01.454Z,67.50
2022-10-01T14:22:47.690Z,69.10
2022-10-01T14:25:43.814Z,65.70
2022-10-01T14:28:33.448Z,63.60
2022-10-01T14:31:26.113Z,61.40
2022-10-01T14:34:12.660Z,60.20
2022-10-01T14:36:50.417Z,59.60
2022-10-01T14:39:28.268Z,59.20
2022-10-01T14:41:58.484Z,62.10
2022-10-01T14:44:38.884Z,64.60
2022-10-01T14:47:19.469Z,66.40
2022-10-01T14:49:48.733Z,62.10
2022-10-01T14:52:23.162Z,59.90
2022-10-01T14:55:15.370Z,59.70
2022-10-01T14:57:46.811Z,63.60
2022-10-01T15:00:18.396Z,65.60
2022-10-01T15:03:04.353Z,66.90
2022-10-01T15:05:35.698Z,68.30
2022-10-01T15:08:14.695Z,63.10
2022-10-01T15:11:02.500Z,61.20
2022-10-01T15:13:35.746Z,59.90
2022-10-01T15:16:04.393Z,58.20
2022-10-01T15:18:33.173Z,57.80
2022-10-01T15:21:07.300Z,58.60
2022-10-01T15:23:39.878Z,61.30
2022-10-01T15:26:11.856Z,63.70
2022-10-01T15:28:40.195Z,62.80
2022-10-01T15:31:08.837Z,60.00
2022-10-01T15:33:39.235Z,58.50
2022-10-01T15:36:13.069Z,60.00
2022-10-01T15:38:44.295Z,63.30
2022-10-01T15:41:31.581Z,65.50
2022-10-01T15:44:04.230Z,61.50
2022-10-01T15:46:34.159Z,59.30
2022-10-01T15:49:17.319Z,58.40
2022-10-01T15:51:59.743Z,56.70
2022-10-01T15:54:28.095Z,56.40
2022-10-01T15:56:56.152Z,57.50
2022-10-01T15:59:24.637Z,60.40
2022-10-01T16:01:52.987Z,57.70
2022-10-01T16:04:22.320Z,56.30
2022-10-01T16:06:51.930Z,55.90
2022-10-01T16:09:24.962Z,57.60
2022-10-01T16:11:58.754Z,55.30
2022-10-01T16:14:37.721Z,54.30
2022-10-01T16:17:17.822Z,53.40
2022-10-01T16:19:49.211Z,53.30
2022-10-01T16:22:28.155Z,55.00
2022-10-01T16:25:03.751Z,53.50
2022-10-01T16:27:44.353Z,52.20
2022-10-01T16:30:27.400Z,53.70
2022-10-01T16:32:58.087Z,53.30
2022-10-01T16:35:28.435Z,52.30
2022-10-01T16:37:57.912Z,51.40
2022-10-01T16:40:31.946Z,50.80
2022-10-01T16:43:01.199Z,52.30
2022-10-01T16:45:38.454Z,55.70
2022-10-01T16:48:16.695Z,53.00
2022-10-01T16:50:45.407Z,51.80
2022-10-01T16:53:18.621Z,52.50
2022-10-01T16:55:47.868Z,53.10
2022-10-01T16:58:16.008Z,52.00
2022-10-01T17:00:44.517Z,51.50
2022-10-01T17:03:19.569Z,50.60
2022-10-01T17:05:48.299Z,51.30
2022-10-01T17:08:16.180Z,54.90
2022-10-01T17:10:47.044Z,53.20
2022-10-01T17:13:16.077Z,51.80
2022-10-01T17:15:44.496Z,51.10
2022-10-01T17:18:12.624Z,54.20
2022-10-01T17:20:40.946Z,56.50
2022-10-01T17:23:10.931Z,53.90
2022-10-01T17:25:40.201Z,52.40
2022-10-01T17:28:11.943Z,51.50
2022-10-01T17:30:41.608Z,50.80
2022-10-01T17:33:12.135Z,51.50
2022-10-01T17:35:45.566Z,54.90
2022-10-01T17:38:14.116Z,57.20
2022-10-01T17:40:43.085Z,53.90
2022-10-01T17:43:16.051Z,52.30
2022-10-01T17:45:45.430Z,52.60
2022-10-01T17:48:13.551Z,55.80
2022-10-01T17:50:41.873Z,57.90
2022-10-01T17:53:11.101Z,54.20
2022-10-01T17:55:43.142Z,52.20
2022-10-01T17:58:11.280Z,51.30
2022-10-01T18:00:41.667Z,51.10
2022-10-01T18:03:09.994Z,51.40
2022-10-01T18:05:38.098Z,55.10
2022-10-01T18:08:06.368Z,57.20
2022-10-01T18:10:34.424Z,56.10
2022-10-01T18:13:02.683Z,53.20
2022-10-01T18:15:30.886Z,52.40
2022-10-01T18:19:12.740Z,54.30
2022-10-01T18:20:47.203Z,57.30
2022-10-01T18:23:15.324Z,60.00
2022-10-01T18:25:43.456Z,56.30
2022-10-01T18:28:11.600Z,54.30
2022-10-01T18:30:39.773Z,52.70
2022-10-01T18:33:12.322Z,51.90
2022-10-01T18:35:42.540Z,52.30
2022-10-01T18:38:25.532Z,55.40
2022-10-01T18:41:06.860Z,58.00
2022-10-01T18:43:39.225Z,59.00
2022-10-01T18:46:19.042Z,55.40
2022-10-01T18:49:17.752Z,53.70
2022-10-01T18:51:58.283Z,55.20
2022-10-01T18:54:52.390Z,58.90
2022-10-01T18:57:26.802Z,59.70
2022-10-01T19:00:02.066Z,56.30
2022-10-01T19:02:52.020Z,54.30
2022-10-01T19:05:35.402Z,53.00
2022-10-01T19:08:38.946Z,53.40
2022-10-01T19:11:30.855Z,56.60
2022-10-01T19:14:31.203Z,59.40
2022-10-01T19:17:05.393Z,60.70
2022-10-01T19:19:59.807Z,56.30
2022-10-01T19:22:33.989Z,54.20
2022-10-01T19:25:37.494Z,56.40
2022-10-01T19:28:23.863Z,59.60
2022-10-01T19:31:24.929Z,61.60
2022-10-01T19:34:02.703Z,57.30
2022-10-01T19:36:39.018Z,55.10
2022-10-01T19:40:27.164Z,53.10
2022-10-01T19:43:06.528Z,54.20
2022-10-01T19:45:47.402Z,56.80
2022-10-01T19:48:35.837Z,59.30
2022-10-01T19:51:09.882Z,58.10
2022-10-01T19:53:42.462Z,54.70
2022-10-01T19:56:17.695Z,53.30
2022-10-01T19:58:46.533Z,52.50
2022-10-01T20:01:17.214Z,52.10
2022-10-01T20:04:00.702Z,54.40
2022-10-01T20:06:37.205Z,57.00
2022-10-01T20:09:50.274Z,59.10
2022-10-01T20:12:33.805Z,60.80
2022-10-01T20:15:34.251Z,56.20
2022-10-01T20:18:34.007Z,54.20
2022-10-01T20:21:16.955Z,56.50
2022-10-01T20:23:57.510Z,59.30
2022-10-01T20:26:40.418Z,61.30
2022-10-01T20:29:28.140Z,56.60
2022-10-01T20:32:20.774Z,55.00
2022-10-01T20:35:08.454Z,53.90
2022-10-01T20:37:53.695Z,53.00
2022-10-01T20:40:47.532Z,53.50
2022-10-01T20:43:37.393Z,56.90
2022-10-01T20:46:28.736Z,59.50
2022-10-01T20:49:05.772Z,57.20
2022-10-01T20:51:38.959Z,55.00
2022-10-01T20:54:13.125Z,53.80
2022-10-01T20:57:16.233Z,56.60
2022-10-01T20:59:49.749Z,59.50
2022-10-01T21:02:47.304Z,60.90
2022-10-01T21:05:43.266Z,56.50
2022-10-01T21:08:29.818Z,54.50
2022-10-01T21:11:00.819Z,53.20
2022-10-01T21:13:31.805Z,52.50
2022-10-01T21:16:19.648Z,53.80
2022-10-01T21:19:01.562Z,57.60
2022-10-01T21:21:40.722Z,59.70
2022-10-01T21:24:30.226Z,61.80
2022-10-01T21:27:16.658Z,63.10
2022-10-01T21:30:02.673Z,58.20
2022-10-01T21:32:52.760Z,56.90
2022-10-01T21:35:36.193Z,58.00
2022-10-01T21:38:12.301Z,61.80
2022-10-01T21:41:10.573Z,63.60
2022-10-01T21:44:11.304Z,60.20
2022-10-01T21:47:03.770Z,57.80
2022-10-01T21:49:57.924Z,55.80
2022-10-01T21:53:03.226Z,54.60
2022-10-01T21:55:47.339Z,55.10
2022-10-01T21:58:28.305Z,57.80
2022-10-01T22:01:37.824Z,60.30
2022-10-01T22:04:27.151Z,62.30
2022-10-01T22:07:05.993Z,58.60
2022-10-01T22:10:03.994Z,56.40
2022-10-01T22:12:36.003Z,56.80
2022-10-01T22:15:18.849Z,59.50
2022-10-01T22:17:48.996Z,61.80
2022-10-01T22:20:19.507Z,63.30
2022-10-01T22:22:49.237Z,60.40
2022-10-01T22:25:17.551Z,57.80
2022-10-01T22:27:57.899Z,56.20
2022-10-01T22:30:28.363Z,54.90
2022-10-01T22:33:23.631Z,54.30
2022-10-01T22:36:14.041Z,54.10
2022-10-01T22:38:53.451Z,58.40
2022-10-01T22:41:36.488Z,60.90
2022-10-01T22:44:30.171Z,62.50
2022-10-01T22:47:29.013Z,62.50
2022-10-01T22:50:15.571Z,57.80
2022-10-01T22:53:07.656Z,57.10
2022-10-01T22:55:51.072Z,60.00
2022-10-01T22:58:32.492Z,63.00
2022-10-01T23:01:28.131Z,64.20
2022-10-01T23:04:30.294Z,65.20
2022-10-01T23:07:20.126Z,60.50
2022-10-01T23:10:27.373Z,58.40
2022-10-01T23:13:11.634Z,56.60
2022-10-01T23:15:47.904Z,56.10
2022-10-01T23:18:40.494Z,55.00
2022-10-01T23:21:34.536Z,56.70
2022-10-01T23:24:30.525Z,59.90
2022-10-01T23:27:04.908Z,62.20
2022-10-01T23:30:22.449Z,63.70
2022-10-01T23:33:17.979Z,59.70
2022-10-01T23:35:57.599Z,57.40
2022-10-01T23:38:32.025Z,57.40
2022-10-01T23:41:09.488Z,61.90
2022-10-01T23:43:45.577Z,64.00
2022-10-01T23:46:24.396Z,65.40
2022-10-01T23:49:10.659Z,62.60
2022-10-01T23:51:46.342Z,59.50
2022-10-01T23:54:52.701Z,57.40
2022-10-01T23:57:26.745Z,56.60
